createdAt,value
2022-08-29T00:04:40.266Z,27.13
2022-08-29T00:09:42.579Z,29.17
2022-08-29T00:14:44.789Z,26.58
2022-08-29T00:19:46.910Z,26.55
2022-08-29T00:24:49.272Z,29.30
2022-08-29T00:29:51.478Z,26.02
2022-08-29T00:34:53.904Z,27.40
2022-08-29T00:39:56.100Z,27.95
2022-08-29T00:44:58.859Z,28.10
2022-08-29T00:50:02.940Z,26.20
2022-08-29T00:55:12.435Z,28.95
2022-08-29T01:00:16.905Z,27.83
2022-08-29T01:05:20.027Z,26.80
2022-08-29T01:10:41.163Z,28.42
2022-08-29T01:15:44.379Z,31.02
2022-08-29T01:20:50.169Z,30.47
2022-08-29T01:26:12.071Z,30.23
2022-08-29T01:31:42.186Z,32.80
2022-08-29T01:36:42.450Z,32.90
2022-08-29T01:41:44.654Z,31.53
2022-08-29T01:46:49.037Z,32.57
2022-08-29T01:51:52.036Z,33.13
2022-08-29T01:56:54.770Z,32.87
2022-08-29T02:02:05.548Z,32.60
2022-08-29T02:07:12.065Z,35.17
2022-08-29T02:12:33.674Z,34.13
2022-08-29T02:17:36.554Z,31.93
2022-08-29T02:22:39.779Z,30.40
2022-08-29T02:27:42.730Z,27.93
2022-08-29T02:32:44.902Z,26.07
2022-08-29T02:38:06.913Z,27.57
2022-08-29T02:43:09.209Z,27.73
2022-08-29T02:48:14.835Z,23.90
2022-08-29T02:53:20.232Z,25.37
2022-08-29T02:58:23.335Z,24.23
2022-08-29T03:03:25.961Z,24.93
2022-08-29T03:08:28.093Z,22.47
2022-08-29T03:13:30.226Z,22.03
2022-08-29T03:18:32.644Z,20.97
2022-08-29T03:23:34.800Z,19.10
2022-08-29T03:28:55.936Z,18.57
2022-08-29T03:33:58.132Z,16.73
2022-08-29T03:39:19.326Z,16.57
2022-08-29T03:44:41.181Z,17.70
2022-08-29T03:49:43.345Z,17.13
2022-08-29T03:55:07.146Z,16.50
2022-08-29T04:00:27.842Z,14.03
2022-08-29T04:05:42.719Z,15.63
2022-08-29T04:10:45.584Z,16.23
2022-08-29T04:15:47.848Z,15.03
2022-08-29T04:20:50.082Z,14.43
2022-08-29T04:26:07.274Z,13.83
2022-08-29T04:31:21.684Z,13.50
2022-08-29T04:36:24.078Z,13.23
2022-08-29T04:41:26.502Z,14.10
2022-08-29T04:46:29.155Z,14.13
2022-08-29T04:51:32.500Z,12.93
2022-08-29T04:56:35.757Z,11.67
2022-08-29T05:01:39.058Z,11.77
2022-08-29T05:06:44.545Z,11.90
2022-08-29T05:11:46.691Z,11.00
2022-08-29T05:16:51.283Z,12.27
2022-08-29T05:21:58.115Z,12.13
2022-08-29T05:27:08.168Z,11.93
2022-08-29T05:32:11.840Z,13.27
2022-08-29T05:37:19.557Z,12.10
2022-08-29T05:42:24.229Z,13.80
2022-08-29T05:47:26.716Z,12.13
2022-08-29T05:52:29.756Z,13.00
2022-08-29T05:57:32.087Z,15.63
2022-08-29T06:02:34.628Z,16.98
2022-08-29T06:07:37.001Z,18.20
2022-08-29T06:12:39.184Z,19.23
2022-08-29T06:17:41.372Z,17.48
2022-08-29T06:22:43.595Z,18.77
2022-08-29T06:28:04.664Z,17.20
2022-08-29T06:33:11.187Z,17.63
2022-08-29T06:38:14.261Z,18.27
2022-08-29T06:43:17.858Z,18.10
2022-08-29T06:48:21.001Z,18.02
2022-08-29T06:53:31.681Z,18.30
2022-08-29T06:58:35.302Z,18.33
2022-08-29T07:03:37.888Z,18.75
2022-08-29T07:13:52.892Z,19.35
2022-08-29T07:18:55.602Z,20.98
2022-08-29T07:23:58.886Z,20.98
2022-08-29T07:29:03.240Z,19.98
2022-08-29T07:34:06.462Z,20.52
2022-08-29T07:39:11.651Z,18.95
2022-08-29T07:44:14.899Z,20.83
2022-08-29T07:49:17.647Z,20.85
2022-08-29T07:54:20.482Z,19.17
2022-08-29T07:59:22.748Z,20.48
2022-08-29T08:04:24.962Z,23.83
2022-08-29T08:09:28.070Z,22.38
2022-08-29T08:14:34.680Z,19.48
2022-08-29T08:19:38.209Z,22.75
2022-08-29T08:24:40.378Z,21.02
2022-08-29T08:29:44.050Z,21.77
2022-08-29T08:34:46.284Z,20.73
2022-08-29T08:39:48.523Z,22.30
2022-08-29T08:45:15.980Z,21.58
2022-08-29T08:51:03.535Z,20.90
2022-08-29T08:56:24.644Z,22.85
2022-08-29T09:01:34.769Z,19.73
2022-08-29T09:06:59.645Z,19.80
2022-08-29T09:12:16.261Z,18.50
2022-08-29T09:17:42.428Z,15.98
2022-08-29T09:22:52.499Z,12.57
2022-08-29T09:27:54.660Z,9.95
2022-08-29T09:32:58.316Z,8.88
2022-08-29T09:38:05.158Z,7.38
2022-08-29T09:43:08.114Z,6.82
2022-08-29T09:48:17.791Z,5.55
2022-08-29T09:53:24.754Z,5.38
2022-08-29T09:58:32.648Z,5.15
2022-08-29T10:03:44.645Z,5.85
2022-08-29T10:09:08.841Z,5.00
2022-08-29T10:14:15.604Z,6.18
2022-08-29T10:19:26.791Z,4.97
2022-08-29T10:24:58.571Z,6.03
2022-08-29T10:30:11.136Z,5.43
2022-08-29T10:35:20.078Z,5.50
2022-08-29T10:40:43.353Z,5.32
2022-08-29T10:45:57.166Z,5.85
2022-08-29T10:51:24.021Z,5.60
2022-08-29T10:56:39.572Z,5.93
2022-08-29T11:01:53.888Z,6.60
2022-08-29T11:07:18.163Z,6.40
2022-08-29T11:12:52.870Z,6.70
2022-08-29T11:18:15.617Z,6.40
2022-08-29T11:23:34.616Z,7.18
2022-08-29T11:28:46.665Z,6.13
2022-08-29T11:33:59.343Z,6.55
2022-08-29T11:39:18.033Z,6.50
2022-08-29T11:44:45.525Z,5.38
2022-08-29T11:49:51.069Z,6.63
2022-08-29T11:55:16.204Z,5.80
2022-08-29T12:00:55.078Z,5.35
2022-08-29T12:06:01.930Z,5.25
2022-08-29T12:11:05.344Z,5.10
2022-08-29T12:16:11.322Z,5.75
2022-08-29T12:21:37.386Z,5.75
2022-08-29T12:26:43.590Z,5.55
2022-08-29T12:32:17.880Z,5.57
2022-08-29T12:37:43.899Z,5.38
2022-08-29T12:43:10.515Z,5.40
2022-08-29T12:48:33.883Z,6.07
2022-08-29T12:53:37.256Z,5.25
2022-08-29T12:58:42.508Z,6.03
2022-08-29T13:04:01.155Z,5.22
2022-08-29T13:09:06.284Z,5.97
2022-08-29T13:14:14.715Z,6.07
2022-08-29T13:19:21.589Z,5.68
2022-08-29T13:24:23.875Z,6.13
2022-08-29T13:34:37.454Z,6.20
2022-08-29T13:39:57.981Z,6.03
2022-08-29T13:45:12.074Z,5.68
2022-08-29T13:50:15.403Z,6.13
2022-08-29T13:55:18.898Z,8.55
2022-08-29T14:00:32.036Z,10.93
2022-08-29T14:05:37.388Z,6.15
2022-08-29T14:10:39.944Z,5.82
2022-08-29T14:15:42.306Z,4.93
2022-08-29T14:20:44.569Z,5.80
2022-08-29T14:25:46.783Z,5.90
2022-08-29T14:30:52.297Z,5.53
2022-08-29T14:35:56.062Z,5.00
2022-08-29T14:40:58.234Z,5.80
2022-08-29T14:46:00.778Z,4.93
2022-08-29T14:51:03.072Z,6.00
2022-08-29T14:56:05.651Z,4.47
2022-08-29T15:01:10.527Z,5.78
2022-08-29T15:06:13.556Z,6.03
2022-08-29T15:11:15.708Z,4.70
2022-08-29T15:16:17.903Z,4.25
2022-08-29T15:21:20.237Z,5.85
2022-08-29T15:26:25.361Z,5.18
2022-08-29T15:31:27.631Z,4.55
2022-08-29T15:36:29.948Z,4.53
2022-08-29T15:41:33.193Z,4.22
2022-08-29T15:46:38.057Z,4.13
2022-08-29T15:51:40.585Z,5.15
2022-08-29T15:56:43.206Z,4.25
2022-08-29T16:01:49.066Z,4.47
2022-08-29T16:06:52.410Z,5.47
2022-08-29T16:11:54.803Z,5.03
2022-08-29T16:17:00.170Z,5.80
2022-08-29T16:22:02.565Z,6.40
2022-08-29T16:27:05.276Z,4.85
2022-08-29T16:32:11.215Z,4.97
2022-08-29T16:37:13.352Z,6.70
2022-08-29T16:42:15.584Z,4.45
2022-08-29T16:47:20.193Z,5.47
2022-08-29T16:52:22.592Z,4.70
2022-08-29T16:57:25.048Z,4.30
2022-08-29T17:02:28.714Z,4.53
2022-08-29T17:07:33.589Z,4.15
2022-08-29T17:12:35.740Z,4.65
2022-08-29T17:17:37.960Z,5.05
2022-08-29T17:22:43.202Z,5.00
2022-08-29T17:28:07.474Z,4.63
2022-08-29T17:33:11.906Z,4.43
2022-08-29T17:38:15.175Z,4.28
2022-08-29T17:43:18.855Z,4.00
2022-08-29T17:48:21.525Z,4.53
2022-08-29T17:53:25.323Z,4.38
2022-08-29T17:58:27.423Z,4.72
2022-08-29T18:03:29.651Z,4.07
2022-08-29T18:08:31.911Z,5.35
2022-08-29T18:13:34.287Z,4.00
2022-08-29T18:18:39.456Z,4.38
2022-08-29T18:23:41.665Z,5.45
2022-08-29T18:28:44.015Z,4.72
2022-08-29T18:34:04.162Z,5.10
2022-08-29T18:39:07.183Z,5.28
2022-08-29T18:44:13.323Z,5.38
2022-08-29T18:49:16.040Z,4.82
2022-08-29T18:54:19.334Z,4.75
2022-08-29T18:59:24.250Z,4.18
2022-08-29T19:04:26.654Z,4.82
2022-08-29T19:09:28.987Z,5.07
2022-08-29T19:14:31.270Z,4.72
2022-08-29T19:19:55.062Z,5.72
2022-08-29T19:24:58.828Z,5.22
2022-08-29T19:30:05.247Z,5.00
2022-08-29T19:35:11.258Z,5.18
2022-08-29T19:40:15.595Z,5.53
2022-08-29T19:45:20.555Z,6.00
2022-08-29T19:50:24.997Z,5.50
2022-08-29T19:55:28.594Z,5.30
2022-08-29T20:00:33.355Z,5.28
2022-08-29T20:05:35.863Z,5.80
2022-08-29T20:10:39.628Z,5.63
2022-08-29T20:15:43.046Z,5.65
2022-08-29T20:20:45.858Z,6.43
2022-08-29T20:25:51.238Z,6.43
2022-08-29T20:30:53.890Z,5.53
2022-08-29T20:36:14.531Z,4.88
2022-08-29T20:41:21.249Z,5.07
2022-08-29T20:46:23.693Z,5.80
2022-08-29T20:51:25.996Z,4.93
2022-08-29T20:56:28.330Z,6.00
2022-08-29T21:01:30.650Z,5.95
2022-08-29T21:06:33.319Z,5.95
2022-08-29T21:11:35.601Z,6.00
2022-08-29T21:16:37.973Z,6.45
2022-08-29T21:21:41.099Z,6.80
2022-08-29T21:26:43.661Z,5.20
2022-08-29T21:31:47.384Z,6.72
2022-08-29T21:36:51.000Z,7.93
2022-08-29T21:41:53.272Z,6.80
2022-08-29T21:46:55.566Z,6.10
2022-08-29T21:51:57.948Z,6.30
2022-08-29T21:57:00.184Z,6.07
2022-08-29T22:02:05.535Z,6.90
2022-08-29T22:07:09.406Z,6.68
2022-08-29T22:12:11.648Z,6.43
2022-08-29T22:17:14.969Z,7.93
2022-08-29T22:22:17.227Z,7.13
2022-08-29T22:27:19.684Z,6.90
2022-08-29T22:32:21.994Z,7.30
2022-08-29T22:37:27.985Z,7.93
2022-08-29T22:42:32.271Z,7.90
2022-08-29T22:47:35.911Z,7.20
2022-08-29T22:52:38.300Z,7.75
2022-08-29T22:57:42.221Z,6.82
2022-08-29T23:02:44.477Z,6.68
2022-08-29T23:07:47.006Z,6.50
2022-08-29T23:12:50.798Z,6.53
2022-08-29T23:17:52.975Z,7.65
2022-08-29T23:22:55.241Z,6.53
2022-08-29T23:27:58.772Z,6.88
2022-08-29T23:33:01.156Z,6.47
2022-08-29T23:38:03.480Z,6.72
2022-08-29T23:43:10.173Z,7.28
2022-08-29T23:48:12.442Z,7.13
2022-08-29T23:53:14.836Z,6.90
2022-08-29T23:58:17.972Z,7.45
